sensor_id;sensor_type;location;lat;lon;timestamp;temperature;humidity
37410;DHT22;23275;48.914;12.566;2023-04-03T00:01:08;3.70;99.90
37410;DHT22;23275;48.914;12.566;2023-04-03T00:03:34;3.70;99.90
37410;DHT22;23275;48.914;12.566;2023-04-03T00:06:00;3.70;99.90
37410;DHT22;23275;48.914;12.566;2023-04-03T00:08:26;3.80;99.90
37410;DHT22;23275;48.914;12.566;2023-04-03T00:10:51;3.80;99.90
37410;DHT22;23275;48.914;12.566;2023-04-03T00:13:17;3.70;99.90
37410;DHT22;23275;48.914;12.566;2023-04-03T00:15:43;3.70;99.90
37410;DHT22;23275;48.914;12.566;2023-04-03T00:18:09;3.70;99.90
37410;DHT22;23275;48.914;12.566;2023-04-03T00:20:35;3.70;99.90
37410;DHT22;23275;48.914;12.566;2023-04-03T00:23:01;3.70;99.90
37410;DHT22;23275;48.914;12.566;2023-04-03T00:25:27;3.70;99.90
37410;DHT22;23275;48.914;12.566;2023-04-03T00:27:52;3.80;99.90
37410;DHT22;23275;48.914;12.566;2023-04-03T00:30:20;3.70;99.90
37410;DHT22;23275;48.914;12.566;2023-04-03T00:32:48;3.70;99.90
37410;DHT22;23275;48.914;12.566;2023-04-03T00:35:13;3.70;99.90
37410;DHT22;23275;48.914;12.566;2023-04-03T00:37:41;3.60;99.90
37410;DHT22;23275;48.914;12.566;2023-04-03T00:40:08;3.60;99.90
37410;DHT22;23275;48.914;12.566;2023-04-03T00:42:33;3.60;99.90
37410;DHT22;23275;48.914;12.566;2023-04-03T00:47:26;3.50;99.90
37410;DHT22;23275;48.914;12.566;2023-04-03T00:49:52;3.50;99.90
37410;DHT22;23275;48.914;12.566;2023-04-03T00:52:22;3.60;99.90
37410;DHT22;23275;48.914;12.566;2023-04-03T00:54:50;3.50;99.90
37410;DHT22;23275;48.914;12.566;2023-04-03T00:57:18;3.60;99.90
37410;DHT22;23275;48.914;12.566;2023-04-03T00:59:50;3.50;99.90
37410;DHT22;23275;48.914;12.566;2023-04-03T01:02:17;3.50;99.90
37410;DHT22;23275;48.914;12.566;2023-04-03T01:04:43;3.50;99.90
37410;DHT22;23275;48.914;12.566;2023-04-03T01:07:23;3.50;99.90
37410;DHT22;23275;48.914;12.566;2023-04-03T01:09:56;3.50;99.90
37410;DHT22;23275;48.914;12.566;2023-04-03T01:12:23;3.50;99.90
37410;DHT22;23275;48.914;12.566;2023-04-03T01:14:55;3.50;99.90
37410;DHT22;23275;48.914;12.566;2023-04-03T01:17:34;3.50;99.90
37410;DHT22;23275;48.914;12.566;2023-04-03T01:23:08;3.50;99.90
37410;DHT22;23275;48.914;12.566;2023-04-03T01:25:49;3.50;99.90
37410;DHT22;23275;48.914;12.566;2023-04-03T01:28:28;3.50;99.90
37410;DHT22;23275;48.914;12.566;2023-04-03T01:31:30;3.50;99.90
37410;DHT22;23275;48.914;12.566;2023-04-03T01:33:57;3.50;99.90
37410;DHT22;23275;48.914;12.566;2023-04-03T01:36:25;3.50;99.90
37410;DHT22;23275;48.914;12.566;2023-04-03T01:38:53;3.50;99.90
37410;DHT22;23275;48.914;12.566;2023-04-03T01:41:19;3.50;99.90
37410;DHT22;23275;48.914;12.566;2023-04-03T01:43:46;3.50;99.90
37410;DHT22;23275;48.914;12.566;2023-04-03T01:46:12;3.50;99.90
37410;DHT22;23275;48.914;12.566;2023-04-03T01:48:38;3.50;99.90
37410;DHT22;23275;48.914;12.566;2023-04-03T01:51:03;3.40;99.90
37410;DHT22;23275;48.914;12.566;2023-04-03T01:53:29;3.40;99.90
37410;DHT22;23275;48.914;12.566;2023-04-03T01:55:55;3.40;99.90
37410;DHT22;23275;48.914;12.566;2023-04-03T01:58:20;3.40;99.90
37410;DHT22;23275;48.914;12.566;2023-04-03T02:00:46;3.50;99.90
37410;DHT22;23275;48.914;12.566;2023-04-03T02:03:11;3.50;99.90
37410;DHT22;23275;48.914;12.566;2023-04-03T02:05:37;3.50;99.90
37410;DHT22;23275;48.914;12.566;2023-04-03T02:08:03;3.40;99.90
37410;DHT22;23275;48.914;12.566;2023-04-03T02:10:29;3.40;99.90
37410;DHT22;23275;48.914;12.566;2023-04-03T02:12:54;3.40;99.90
37410;DHT22;23275;48.914;12.566;2023-04-03T02:15:20;3.50;99.90
37410;DHT22;23275;48.914;12.566;2023-04-03T02:17:46;3.50;99.90
37410;DHT22;23275;48.914;12.566;2023-04-03T02:20:12;3.40;99.90
37410;DHT22;23275;48.914;12.566;2023-04-03T02:22:37;3.40;99.90
37410;DHT22;23275;48.914;12.566;2023-04-03T02:25:03;3.40;99.90
37410;DHT22;23275;48.914;12.566;2023-04-03T02:27:29;3.40;99.90
37410;DHT22;23275;48.914;12.566;2023-04-03T02:29:55;3.40;99.90
37410;DHT22;23275;48.914;12.566;2023-04-03T02:32:20;3.50;99.90
37410;DHT22;23275;48.914;12.566;2023-04-03T02:34:46;3.40;99.90
37410;DHT22;23275;48.914;12.566;2023-04-03T02:37:11;3.40;99.90
37410;DHT22;23275;48.914;12.566;2023-04-03T02:39:37;3.40;99.90
37410;DHT22;23275;48.914;12.566;2023-04-03T02:42:03;3.40;99.90
37410;DHT22;23275;48.914;12.566;2023-04-03T02:44:29;3.40;99.90
37410;DHT22;23275;48.914;12.566;2023-04-03T02:46:54;3.40;99.90
37410;DHT22;23275;48.914;12.566;2023-04-03T02:49:20;3.40;99.90
37410;DHT22;23275;48.914;12.566;2023-04-03T02:51:45;3.40;99.90
37410;DHT22;23275;48.914;12.566;2023-04-03T02:54:11;3.30;99.90
37410;DHT22;23275;48.914;12.566;2023-04-03T02:56:36;3.30;99.90
37410;DHT22;23275;48.914;12.566;2023-04-03T02:59:03;3.30;99.90
37410;DHT22;23275;48.914;12.566;2023-04-03T03:01:28;3.30;99.90
37410;DHT22;23275;48.914;12.566;2023-04-03T03:03:57;3.30;99.90
37410;DHT22;23275;48.914;12.566;2023-04-03T03:06:23;3.30;99.90
37410;DHT22;23275;48.914;12.566;2023-04-03T03:08:48;3.30;99.90
37410;DHT22;23275;48.914;12.566;2023-04-03T03:11:14;3.30;99.90
37410;DHT22;23275;48.914;12.566;2023-04-03T03:13:39;3.30;99.90
37410;DHT22;23275;48.914;12.566;2023-04-03T03:16:06;3.30;99.90
37410;DHT22;23275;48.914;12.566;2023-04-03T03:18:32;3.20;99.90
37410;DHT22;23275;48.914;12.566;2023-04-03T03:20:59;3.20;99.90
37410;DHT22;23275;48.914;12.566;2023-04-03T03:23:26;3.20;99.90
37410;DHT22;23275;48.914;12.566;2023-04-03T03:25:56;3.20;99.90
37410;DHT22;23275;48.914;12.566;2023-04-03T03:28:22;3.20;99.90
37410;DHT22;23275;48.914;12.566;2023-04-03T03:30:47;3.20;99.90
37410;DHT22;23275;48.914;12.566;2023-04-03T03:33:13;3.20;99.90
37410;DHT22;23275;48.914;12.566;2023-04-03T03:35:39;3.10;99.90
37410;DHT22;23275;48.914;12.566;2023-04-03T03:38:05;3.10;99.90
37410;DHT22;23275;48.914;12.566;2023-04-03T03:40:31;3.20;99.90
37410;DHT22;23275;48.914;12.566;2023-04-03T03:42:56;3.10;99.90
37410;DHT22;23275;48.914;12.566;2023-04-03T03:45:22;3.10;99.90
37410;DHT22;23275;48.914;12.566;2023-04-03T03:47:47;3.20;99.90
37410;DHT22;23275;48.914;12.566;2023-04-03T03:50:13;3.10;99.90
37410;DHT22;23275;48.914;12.566;2023-04-03T03:52:38;3.10;99.90
37410;DHT22;23275;48.914;12.566;2023-04-03T03:55:04;3.10;99.90
37410;DHT22;23275;48.914;12.566;2023-04-03T03:57:30;3.10;99.90
37410;DHT22;23275;48.914;12.566;2023-04-03T03:59:55;3.10;99.90
37410;DHT22;23275;48.914;12.566;2023-04-03T04:02:21;3.10;99.90
37410;DHT22;23275;48.914;12.566;2023-04-03T04:04:47;3.10;99.90
37410;DHT22;23275;48.914;12.566;2023-04-03T04:07:12;3.10;99.90
37410;DHT22;23275;48.914;12.566;2023-04-03T04:09:38;3.10;99.90
37410;DHT22;23275;48.914;12.566;2023-04-03T04:12:03;3.10;99.90
37410;DHT22;23275;48.914;12.566;2023-04-03T04:14:29;3.10;99.90
37410;DHT22;23275;48.914;12.566;2023-04-03T04:16:55;3.10;99.90
37410;DHT22;23275;48.914;12.566;2023-04-03T04:19:20;3.10;99.90
37410;DHT22;23275;48.914;12.566;2023-04-03T04:21:46;3.10;99.90
37410;DHT22;23275;48.914;12.566;2023-04-03T04:24:11;3.10;99.90
37410;DHT22;23275;48.914;12.566;2023-04-03T04:26:37;3.10;99.90
37410;DHT22;23275;48.914;12.566;2023-04-03T04:29:02;3.10;99.90
37410;DHT22;23275;48.914;12.566;2023-04-03T04:31:28;3.10;99.90
37410;DHT22;23275;48.914;12.566;2023-04-03T04:33:54;3.10;99.90
37410;DHT22;23275;48.914;12.566;2023-04-03T04:36:19;3.10;99.90
37410;DHT22;23275;48.914;12.566;2023-04-03T04:38:45;3.10;99.90
37410;DHT22;23275;48.914;12.566;2023-04-03T04:41:11;3.10;99.90
37410;DHT22;23275;48.914;12.566;2023-04-03T04:43:37;3.10;99.90
37410;DHT22;23275;48.914;12.566;2023-04-03T04:46:08;3.00;99.90
37410;DHT22;23275;48.914;12.566;2023-04-03T04:48:34;3.10;99.90
37410;DHT22;23275;48.914;12.566;2023-04-03T04:51:00;3.10;99.90
37410;DHT22;23275;48.914;12.566;2023-04-03T04:53:25;3.10;99.90
37410;DHT22;23275;48.914;12.566;2023-04-03T04:55:52;3.10;99.90
37410;DHT22;23275;48.914;12.566;2023-04-03T04:58:18;3.10;99.90
37410;DHT22;23275;48.914;12.566;2023-04-03T05:00:43;3.10;99.90
37410;DHT22;23275;48.914;12.566;2023-04-03T05:03:09;3.10;99.90
37410;DHT22;23275;48.914;12.566;2023-04-03T05:05:35;3.10;99.90
37410;DHT22;23275;48.914;12.566;2023-04-03T05:08:01;3.10;99.90
37410;DHT22;23275;48.914;12.566;2023-04-03T05:10:28;3.10;99.90
37410;DHT22;23275;48.914;12.566;2023-04-03T05:12:53;3.10;99.90
37410;DHT22;23275;48.914;12.566;2023-04-03T05:15:19;3.10;99.90
37410;DHT22;23275;48.914;12.566;2023-04-03T05:17:45;3.10;99.90
37410;DHT22;23275;48.914;12.566;2023-04-03T05:20:11;3.10;99.90
37410;DHT22;23275;48.914;12.566;2023-04-03T05:22:37;3.10;99.90
37410;DHT22;23275;48.914;12.566;2023-04-03T05:25:03;3.10;99.90
37410;DHT22;23275;48.914;12.566;2023-04-03T05:27:28;3.10;99.90
37410;DHT22;23275;48.914;12.566;2023-04-03T05:29:55;3.10;99.90
37410;DHT22;23275;48.914;12.566;2023-04-03T05:32:21;3.10;99.90
37410;DHT22;23275;48.914;12.566;2023-04-03T05:34:47;3.10;99.90
37410;DHT22;23275;48.914;12.566;2023-04-03T05:37:13;3.10;99.90
37410;DHT22;23275;48.914;12.566;2023-04-03T05:39:38;3.10;99.90
37410;DHT22;23275;48.914;12.566;2023-04-03T05:42:06;3.10;99.90
37410;DHT22;23275;48.914;12.566;2023-04-03T05:44:32;3.20;99.90
37410;DHT22;23275;48.914;12.566;2023-04-03T05:46:57;3.20;99.90
37410;DHT22;23275;48.914;12.566;2023-04-03T05:49:23;3.20;99.90
37410;DHT22;23275;48.914;12.566;2023-04-03T05:51:49;3.20;99.90
37410;DHT22;23275;48.914;12.566;2023-04-03T05:54:25;3.30;99.90
37410;DHT22;23275;48.914;12.566;2023-04-03T05:56:51;3.30;99.90
37410;DHT22;23275;48.914;12.566;2023-04-03T05:59:18;3.30;99.90
37410;DHT22;23275;48.914;12.566;2023-04-03T06:01:45;3.20;99.90
37410;DHT22;23275;48.914;12.566;2023-04-03T06:04:11;3.30;99.90
37410;DHT22;23275;48.914;12.566;2023-04-03T06:06:52;3.20;99.90
37410;DHT22;23275;48.914;12.566;2023-04-03T06:09:20;3.30;99.90
37410;DHT22;23275;48.914;12.566;2023-04-03T06:11:46;3.30;99.90
37410;DHT22;23275;48.914;12.566;2023-04-03T06:14:12;3.30;99.90
37410;DHT22;23275;48.914;12.566;2023-04-03T06:16:38;3.40;99.90
37410;DHT22;23275;48.914;12.566;2023-04-03T06:19:06;3.40;99.90
37410;DHT22;23275;48.914;12.566;2023-04-03T06:21:32;3.40;99.90
37410;DHT22;23275;48.914;12.566;2023-04-03T06:23:57;3.40;99.90
37410;DHT22;23275;48.914;12.566;2023-04-03T06:26:23;3.50;99.90
37410;DHT22;23275;48.914;12.566;2023-04-03T06:28:49;3.50;99.90
37410;DHT22;23275;48.914;12.566;2023-04-03T06:31:14;3.50;99.90
37410;DHT22;23275;48.914;12.566;2023-04-03T06:33:40;3.50;99.90
37410;DHT22;23275;48.914;12.566;2023-04-03T06:36:06;3.50;99.90
37410;DHT22;23275;48.914;12.566;2023-04-03T06:38:33;3.60;99.90
37410;DHT22;23275;48.914;12.566;2023-04-03T06:40:59;3.50;99.90
37410;DHT22;23275;48.914;12.566;2023-04-03T06:43:25;3.60;99.90
37410;DHT22;23275;48.914;12.566;2023-04-03T06:45:51;3.60;99.90
37410;DHT22;23275;48.914;12.566;2023-04-03T06:48:17;3.70;99.90
37410;DHT22;23275;48.914;12.566;2023-04-03T06:50:43;3.80;99.90
37410;DHT22;23275;48.914;12.566;2023-04-03T06:53:09;3.80;99.90
37410;DHT22;23275;48.914;12.566;2023-04-03T06:55:35;3.90;99.90
37410;DHT22;23275;48.914;12.566;2023-04-03T06:58:01;3.90;99.90
37410;DHT22;23275;48.914;12.566;2023-04-03T07:00:27;4.00;99.90
37410;DHT22;23275;48.914;12.566;2023-04-03T07:02:53;4.00;99.90
37410;DHT22;23275;48.914;12.566;2023-04-03T07:05:18;4.00;99.90
37410;DHT22;23275;48.914;12.566;2023-04-03T07:07:44;4.00;99.90
37410;DHT22;23275;48.914;12.566;2023-04-03T07:10:10;4.00;99.90
37410;DHT22;23275;48.914;12.566;2023-04-03T07:12:36;4.00;99.90
37410;DHT22;23275;48.914;12.566;2023-04-03T07:15:04;4.10;99.90
37410;DHT22;23275;48.914;12.566;2023-04-03T07:17:30;4.00;99.90
37410;DHT22;23275;48.914;12.566;2023-04-03T07:19:55;4.10;99.90
37410;DHT22;23275;48.914;12.566;2023-04-03T07:22:21;4.10;99.90
37410;DHT22;23275;48.914;12.566;2023-04-03T07:24:47;4.20;99.90
37410;DHT22;23275;48.914;12.566;2023-04-03T07:27:12;4.30;99.90
37410;DHT22;23275;48.914;12.566;2023-04-03T07:29:38;4.40;99.90
37410;DHT22;23275;48.914;12.566;2023-04-03T07:32:04;4.40;99.90
37410;DHT22;23275;48.914;12.566;2023-04-03T07:34:31;4.40;99.90
37410;DHT22;23275;48.914;12.566;2023-04-03T07:36:56;4.40;99.90
37410;DHT22;23275;48.914;12.566;2023-04-03T07:39:23;4.50;99.90
37410;DHT22;23275;48.914;12.566;2023-04-03T07:41:48;4.50;99.90
37410;DHT22;23275;48.914;12.566;2023-04-03T07:44:15;4.50;99.90
37410;DHT22;23275;48.914;12.566;2023-04-03T07:46:40;4.60;99.90
37410;DHT22;23275;48.914;12.566;2023-04-03T07:49:06;4.70;99.90
37410;DHT22;23275;48.914;12.566;2023-04-03T07:51:32;4.70;99.90
37410;DHT22;23275;48.914;12.566;2023-04-03T07:53:57;4.80;99.90
37410;DHT22;23275;48.914;12.566;2023-04-03T07:56:23;4.80;99.90
37410;DHT22;23275;48.914;12.566;2023-04-03T07:58:50;4.80;99.90
37410;DHT22;23275;48.914;12.566;2023-04-03T08:01:16;4.90;99.90
37410;DHT22;23275;48.914;12.566;2023-04-03T08:03:41;5.10;99.90
37410;DHT22;23275;48.914;12.566;2023-04-03T08:06:08;5.20;99.90
37410;DHT22;23275;48.914;12.566;2023-04-03T08:08:33;5.30;99.90
37410;DHT22;23275;48.914;12.566;2023-04-03T08:11:01;5.50;99.90
37410;DHT22;23275;48.914;12.566;2023-04-03T08:13:29;5.70;99.90
37410;DHT22;23275;48.914;12.566;2023-04-03T08:15:55;6.00;99.90
37410;DHT22;23275;48.914;12.566;2023-04-03T08:18:23;6.30;99.90
37410;DHT22;23275;48.914;12.566;2023-04-03T08:20:50;6.30;99.90
37410;DHT22;23275;48.914;12.566;2023-04-03T08:23:17;6.30;99.90
37410;DHT22;23275;48.914;12.566;2023-04-03T08:25:43;7.30;99.90
37410;DHT22;23275;48.914;12.566;2023-04-03T08:28:10;8.60;99.90
37410;DHT22;23275;48.914;12.566;2023-04-03T08:30:39;9.80;99.90
37410;DHT22;23275;48.914;12.566;2023-04-03T08:33:05;11.60;95.70
37410;DHT22;23275;48.914;12.566;2023-04-03T08:35:31;12.00;93.70
37410;DHT22;23275;48.914;12.566;2023-04-03T08:37:57;12.50;91.50
37410;DHT22;23275;48.914;12.566;2023-04-03T08:40:23;13.80;86.00
37410;DHT22;23275;48.914;12.566;2023-04-03T08:45:45;15.30;70.40
37410;DHT22;23275;48.914;12.566;2023-04-03T08:48:33;18.70;63.40
37410;DHT22;23275;48.914;12.566;2023-04-03T08:51:03;21.80;53.80
37410;DHT22;23275;48.914;12.566;2023-04-03T08:53:33;24.40;48.10
37410;DHT22;23275;48.914;12.566;2023-04-03T08:56:08;28.10;41.80
37410;DHT22;23275;48.914;12.566;2023-04-03T08:58:45;28.50;33.20
37410;DHT22;23275;48.914;12.566;2023-04-03T09:03:45;24.20;36.00
37410;DHT22;23275;48.914;12.566;2023-04-03T09:06:23;23.40;38.20
37410;DHT22;23275;48.914;12.566;2023-04-03T09:09:13;23.70;37.20
37410;DHT22;23275;48.914;12.566;2023-04-03T09:14:28;25.00;35.40
37410;DHT22;23275;48.914;12.566;2023-04-03T09:16:59;25.70;35.20
37410;DHT22;23275;48.914;12.566;2023-04-03T09:19:36;27.70;33.30
37410;DHT22;23275;48.914;12.566;2023-04-03T09:22:17;28.30;30.70
37410;DHT22;23275;48.914;12.566;2023-04-03T09:24:50;24.30;30.30
37410;DHT22;23275;48.914;12.566;2023-04-03T09:27:17;20.80;34.70
37410;DHT22;23275;48.914;12.566;2023-04-03T09:29:43;20.00;38.80
37410;DHT22;23275;48.914;12.566;2023-04-03T09:32:31;21.20;37.80
37410;DHT22;23275;48.914;12.566;2023-04-03T09:35:10;24.00;32.90
37410;DHT22;23275;48.914;12.566;2023-04-03T09:37:43;23.20;34.10
37410;DHT22;23275;48.914;12.566;2023-04-03T09:40:33;22.30;33.40
37410;DHT22;23275;48.914;12.566;2023-04-03T09:43:21;22.70;35.50
37410;DHT22;23275;48.914;12.566;2023-04-03T09:45:48;23.70;34.50
37410;DHT22;23275;48.914;12.566;2023-04-03T09:48:16;21.50;38.00
37410;DHT22;23275;48.914;12.566;2023-04-03T09:50:55;20.60;37.50
37410;DHT22;23275;48.914;12.566;2023-04-03T09:53:37;19.00;40.00
37410;DHT22;23275;48.914;12.566;2023-04-03T09:58:48;21.10;37.70
37410;DHT22;23275;48.914;12.566;2023-04-03T10:01:34;20.30;37.70
37410;DHT22;23275;48.914;12.566;2023-04-03T10:04:13;19.40;39.80
37410;DHT22;23275;48.914;12.566;2023-04-03T10:06:44;20.90;39.90
37410;DHT22;23275;48.914;12.566;2023-04-03T10:09:24;24.00;37.20
37410;DHT22;23275;48.914;12.566;2023-04-03T10:14:40;25.30;32.00
37410;DHT22;23275;48.914;12.566;2023-04-03T10:17:32;24.50;32.00
37410;DHT22;23275;48.914;12.566;2023-04-03T10:20:02;24.40;32.60
37410;DHT22;23275;48.914;12.566;2023-04-03T10:22:50;24.40;31.20
37410;DHT22;23275;48.914;12.566;2023-04-03T10:28:35;19.30;36.40
37410;DHT22;23275;48.914;12.566;2023-04-03T10:31:07;18.30;39.10
37410;DHT22;23275;48.914;12.566;2023-04-03T10:42:09;19.30;41.30
37410;DHT22;23275;48.914;12.566;2023-04-03T10:50:29;17.80;40.00
37410;DHT22;23275;48.914;12.566;2023-04-03T10:56:01;21.20;37.50
37410;DHT22;23275;48.914;12.566;2023-04-03T10:58:36;18.30;37.80
37410;DHT22;23275;48.914;12.566;2023-04-03T11:01:09;18.40;43.60
37410;DHT22;23275;48.914;12.566;2023-04-03T11:03:47;19.50;36.90
37410;DHT22;23275;48.914;12.566;2023-04-03T11:06:15;20.70;40.00
37410;DHT22;23275;48.914;12.566;2023-04-03T11:08:56;22.10;36.80
37410;DHT22;23275;48.914;12.566;2023-04-03T11:11:24;22.70;34.40
37410;DHT22;23275;48.914;12.566;2023-04-03T11:14:09;21.50;35.00
37410;DHT22;23275;48.914;12.566;2023-04-03T11:16:48;18.40;40.40
37410;DHT22;23275;48.914;12.566;2023-04-03T11:19:22;16.90;42.60
37410;DHT22;23275;48.914;12.566;2023-04-03T11:24:33;13.40;48.70
37410;DHT22;23275;48.914;12.566;2023-04-03T11:27:02;12.80;47.80
37410;DHT22;23275;48.914;12.566;2023-04-03T11:29:36;11.80;52.90
37410;DHT22;23275;48.914;12.566;2023-04-03T11:34:56;10.40;53.20
37410;DHT22;23275;48.914;12.566;2023-04-03T11:37:46;9.90;58.10
37410;DHT22;23275;48.914;12.566;2023-04-03T11:42:42;10.20;56.80
37410;DHT22;23275;48.914;12.566;2023-04-03T11:48:00;10.30;57.40
37410;DHT22;23275;48.914;12.566;2023-04-03T11:53:46;10.40;56.70
37410;DHT22;23275;48.914;12.566;2023-04-03T12:00:55;8.70;59.60
37410;DHT22;23275;48.914;12.566;2023-04-03T12:13:38;9.40;63.50
37410;DHT22;23275;48.914;12.566;2023-04-03T12:21:23;8.30;59.50
37410;DHT22;23275;48.914;12.566;2023-04-03T12:37:37;7.20;67.00
37410;DHT22;23275;48.914;12.566;2023-04-03T12:45:56;6.80;65.30
37410;DHT22;23275;48.914;12.566;2023-04-03T12:48:27;7.00;65.90
37410;DHT22;23275;48.914;12.566;2023-04-03T12:50:54;7.00;65.40
37410;DHT22;23275;48.914;12.566;2023-04-03T12:53:41;7.30;66.50
37410;DHT22;23275;48.914;12.566;2023-04-03T12:58:49;7.80;69.60
37410;DHT22;23275;48.914;12.566;2023-04-03T13:01:24;8.00;67.80
37410;DHT22;23275;48.914;12.566;2023-04-03T13:03:53;7.80;63.00
37410;DHT22;23275;48.914;12.566;2023-04-03T13:06:23;7.60;66.10
37410;DHT22;23275;48.914;12.566;2023-04-03T13:08:52;7.70;65.50
37410;DHT22;23275;48.914;12.566;2023-04-03T13:11:20;7.50;64.80
37410;DHT22;23275;48.914;12.566;2023-04-03T13:14:04;7.30;66.00
37410;DHT22;23275;48.914;12.566;2023-04-03T13:16:32;7.30;66.60
37410;DHT22;23275;48.914;12.566;2023-04-03T13:18:58;7.10;66.40
37410;DHT22;23275;48.914;12.566;2023-04-03T13:21:31;6.80;65.90
37410;DHT22;23275;48.914;12.566;2023-04-03T13:24:01;6.80;68.10
37410;DHT22;23275;48.914;12.566;2023-04-03T13:26:30;7.00;68.90
37410;DHT22;23275;48.914;12.566;2023-04-03T13:29:00;7.30;69.70
37410;DHT22;23275;48.914;12.566;2023-04-03T13:31:36;7.50;66.50
37410;DHT22;23275;48.914;12.566;2023-04-03T13:34:13;7.50;69.00
37410;DHT22;23275;48.914;12.566;2023-04-03T13:41:46;7.80;62.80
37410;DHT22;23275;48.914;12.566;2023-04-03T13:46:51;7.30;68.50
37410;DHT22;23275;48.914;12.566;2023-04-03T13:51:51;7.90;63.10
37410;DHT22;23275;48.914;12.566;2023-04-03T13:54:20;7.70;65.00
37410;DHT22;23275;48.914;12.566;2023-04-03T13:56:53;7.50;62.70
37410;DHT22;23275;48.914;12.566;2023-04-03T13:59:33;7.60;67.10
37410;DHT22;23275;48.914;12.566;2023-04-03T14:04:32;7.40;65.40
37410;DHT22;23275;48.914;12.566;2023-04-03T14:06:59;7.10;67.10
37410;DHT22;23275;48.914;12.566;2023-04-03T14:09:27;6.90;66.30
37410;DHT22;23275;48.914;12.566;2023-04-03T14:11:56;7.00;67.70
37410;DHT22;23275;48.914;12.566;2023-04-03T14:14:27;7.30;68.70
37410;DHT22;23275;48.914;12.566;2023-04-03T14:16:58;7.20;62.50
37410;DHT22;23275;48.914;12.566;2023-04-03T14:19:35;7.10;65.70
37410;DHT22;23275;48.914;12.566;2023-04-03T14:22:11;7.00;65.30
37410;DHT22;23275;48.914;12.566;2023-04-03T14:24:37;6.80;63.70
37410;DHT22;23275;48.914;12.566;2023-04-03T14:29:43;6.80;66.00
37410;DHT22;23275;48.914;12.566;2023-04-03T14:32:14;6.80;67.00
37410;DHT22;23275;48.914;12.566;2023-04-03T14:34:42;6.50;64.30
37410;DHT22;23275;48.914;12.566;2023-04-03T14:37:20;6.20;64.00
37410;DHT22;23275;48.914;12.566;2023-04-03T14:39:46;6.30;66.90
37410;DHT22;23275;48.914;12.566;2023-04-03T14:42:18;6.70;67.80
37410;DHT22;23275;48.914;12.566;2023-04-03T14:44:45;7.10;66.10
37410;DHT22;23275;48.914;12.566;2023-04-03T14:47:21;7.10;66.10
37410;DHT22;23275;48.914;12.566;2023-04-03T14:49:48;7.20;67.00
37410;DHT22;23275;48.914;12.566;2023-04-03T14:52:30;6.60;65.00
37410;DHT22;23275;48.914;12.566;2023-04-03T14:54:57;6.50;66.80
37410;DHT22;23275;48.914;12.566;2023-04-03T14:57:24;6.60;67.40
37410;DHT22;23275;48.914;12.566;2023-04-03T14:59:50;6.80;67.90
37410;DHT22;23275;48.914;12.566;2023-04-03T15:04:41;6.80;64.80
37410;DHT22;23275;48.914;12.566;2023-04-03T15:07:08;6.90;66.20
37410;DHT22;23275;48.914;12.566;2023-04-03T15:09:35;7.20;66.50
37410;DHT22;23275;48.914;12.566;2023-04-03T15:12:02;7.10;65.40
37410;DHT22;23275;48.914;12.566;2023-04-03T15:14:27;6.80;64.40
37410;DHT22;23275;48.914;12.566;2023-04-03T15:16:53;6.80;65.70
37410;DHT22;23275;48.914;12.566;2023-04-03T15:19:18;6.50;64.00
37410;DHT22;23275;48.914;12.566;2023-04-03T15:21:44;6.50;65.20
37410;DHT22;23275;48.914;12.566;2023-04-03T15:24:10;6.60;64.20
37410;DHT22;23275;48.914;12.566;2023-04-03T15:26:36;6.60;63.80
37410;DHT22;23275;48.914;12.566;2023-04-03T15:29:03;6.50;66.20
37410;DHT22;23275;48.914;12.566;2023-04-03T15:31:29;6.50;67.20
37410;DHT22;23275;48.914;12.566;2023-04-03T15:33:54;6.40;66.90
37410;DHT22;23275;48.914;12.566;2023-04-03T15:36:20;6.30;67.80
37410;DHT22;23275;48.914;12.566;2023-04-03T15:38:46;6.00;66.90
37410;DHT22;23275;48.914;12.566;2023-04-03T15:41:11;5.80;66.00
37410;DHT22;23275;48.914;12.566;2023-04-03T15:43:37;5.60;68.20
37410;DHT22;23275;48.914;12.566;2023-04-03T15:46:04;5.70;69.80
37410;DHT22;23275;48.914;12.566;2023-04-03T15:48:29;5.80;69.30
37410;DHT22;23275;48.914;12.566;2023-04-03T15:50:55;5.90;69.90
37410;DHT22;23275;48.914;12.566;2023-04-03T15:53:21;6.00;69.00
37410;DHT22;23275;48.914;12.566;2023-04-03T15:55:47;5.90;69.60
37410;DHT22;23275;48.914;12.566;2023-04-03T15:58:12;5.70;70.90
37410;DHT22;23275;48.914;12.566;2023-04-03T16:00:38;5.70;70.70
37410;DHT22;23275;48.914;12.566;2023-04-03T16:03:12;5.70;69.30
37410;DHT22;23275;48.914;12.566;2023-04-03T16:05:40;5.70;71.80
37410;DHT22;23275;48.914;12.566;2023-04-03T16:08:06;5.70;69.90
37410;DHT22;23275;48.914;12.566;2023-04-03T16:10:36;5.50;67.60
37410;DHT22;23275;48.914;12.566;2023-04-03T16:13:02;5.40;69.50
37410;DHT22;23275;48.914;12.566;2023-04-03T16:15:31;5.30;70.50
37410;DHT22;23275;48.914;12.566;2023-04-03T16:17:58;5.30;72.50
37410;DHT22;23275;48.914;12.566;2023-04-03T16:20:25;5.20;72.40
37410;DHT22;23275;48.914;12.566;2023-04-03T16:22:51;5.20;72.40
37410;DHT22;23275;48.914;12.566;2023-04-03T16:25:17;5.10;72.80
37410;DHT22;23275;48.914;12.566;2023-04-03T16:27:43;4.90;71.60
37410;DHT22;23275;48.914;12.566;2023-04-03T16:30:10;4.80;73.00
37410;DHT22;23275;48.914;12.566;2023-04-03T16:32:36;4.70;70.70
37410;DHT22;23275;48.914;12.566;2023-04-03T16:35:03;4.60;72.40
37410;DHT22;23275;48.914;12.566;2023-04-03T16:37:29;4.60;73.30
37410;DHT22;23275;48.914;12.566;2023-04-03T16:39:54;4.50;74.60
37410;DHT22;23275;48.914;12.566;2023-04-03T16:42:20;4.40;74.10
37410;DHT22;23275;48.914;12.566;2023-04-03T16:44:45;4.20;73.80
37410;DHT22;23275;48.914;12.566;2023-04-03T16:47:11;4.10;75.40
37410;DHT22;23275;48.914;12.566;2023-04-03T16:49:39;4.10;76.30
37410;DHT22;23275;48.914;12.566;2023-04-03T16:52:05;4.00;76.60
37410;DHT22;23275;48.914;12.566;2023-04-03T16:54:31;3.90;75.80
37410;DHT22;23275;48.914;12.566;2023-04-03T16:56:57;3.90;78.50
37410;DHT22;23275;48.914;12.566;2023-04-03T16:59:23;3.90;78.30
37410;DHT22;23275;48.914;12.566;2023-04-03T17:01:49;3.80;79.00
37410;DHT22;23275;48.914;12.566;2023-04-03T17:04:15;3.80;77.50
37410;DHT22;23275;48.914;12.566;2023-04-03T17:06:40;3.70;76.50
37410;DHT22;23275;48.914;12.566;2023-04-03T17:09:06;3.60;76.20
37410;DHT22;23275;48.914;12.566;2023-04-03T17:11:33;3.60;75.50
37410;DHT22;23275;48.914;12.566;2023-04-03T17:13:58;3.60;76.60
37410;DHT22;23275;48.914;12.566;2023-04-03T17:16:24;3.50;76.90
37410;DHT22;23275;48.914;12.566;2023-04-03T17:18:50;3.50;77.90
37410;DHT22;23275;48.914;12.566;2023-04-03T17:21:17;3.40;78.40
37410;DHT22;23275;48.914;12.566;2023-04-03T17:23:44;3.30;78.20
37410;DHT22;23275;48.914;12.566;2023-04-03T17:26:11;3.30;78.30
37410;DHT22;23275;48.914;12.566;2023-04-03T17:28:37;3.20;79.40